sensor_id;sensor_type;location;lat;lon;timestamp;temperature;humidity
14236;DHT22;7202;50.718;7.072;2023-01-13T00:00:34;11.70;99.90
14236;DHT22;7202;50.718;7.072;2023-01-13T00:03:06;11.80;99.90
14236;DHT22;7202;50.718;7.072;2023-01-13T00:05:35;11.80;99.90
14236;DHT22;7202;50.718;7.072;2023-01-13T00:08:04;11.80;99.90
14236;DHT22;7202;50.718;7.072;2023-01-13T00:10:34;11.70;99.90
14236;DHT22;7202;50.718;7.072;2023-01-13T00:13:03;11.70;99.90
14236;DHT22;7202;50.718;7.072;2023-01-13T00:15:32;11.70;99.90
14236;DHT22;7202;50.718;7.072;2023-01-13T00:18:01;11.70;99.90
14236;DHT22;7202;50.718;7.072;2023-01-13T00:20:31;11.70;99.90
14236;DHT22;7202;50.718;7.072;2023-01-13T00:23:00;11.70;99.90
14236;DHT22;7202;50.718;7.072;2023-01-13T00:25:28;11.60;99.90
14236;DHT22;7202;50.718;7.072;2023-01-13T00:27:57;11.60;99.90
14236;DHT22;7202;50.718;7.072;2023-01-13T00:30:25;11.50;99.90
14236;DHT22;7202;50.718;7.072;2023-01-13T00:32:54;11.60;99.90
14236;DHT22;7202;50.718;7.072;2023-01-13T00:35:22;11.60;99.90
14236;DHT22;7202;50.718;7.072;2023-01-13T00:37:52;11.60;99.90
14236;DHT22;7202;50.718;7.072;2023-01-13T00:40:21;11.60;99.90
14236;DHT22;7202;50.718;7.072;2023-01-13T00:42:49;11.60;99.90
14236;DHT22;7202;50.718;7.072;2023-01-13T00:45:44;11.50;99.90
14236;DHT22;7202;50.718;7.072;2023-01-13T00:48:12;11.50;99.90
14236;DHT22;7202;50.718;7.072;2023-01-13T00:50:41;11.50;99.90
14236;DHT22;7202;50.718;7.072;2023-01-13T00:53:11;11.50;99.90
14236;DHT22;7202;50.718;7.072;2023-01-13T00:55:41;11.60;99.90
14236;DHT22;7202;50.718;7.072;2023-01-13T00:58:09;11.60;99.90
14236;DHT22;7202;50.718;7.072;2023-01-13T01:00:38;11.60;99.90
14236;DHT22;7202;50.718;7.072;2023-01-13T01:03:07;11.60;99.90
14236;DHT22;7202;50.718;7.072;2023-01-13T01:05:38;11.60;99.90
14236;DHT22;7202;50.718;7.072;2023-01-13T01:08:07;11.50;99.90
14236;DHT22;7202;50.718;7.072;2023-01-13T01:10:37;11.60;99.90
14236;DHT22;7202;50.718;7.072;2023-01-13T01:13:05;11.50;99.90
14236;DHT22;7202;50.718;7.072;2023-01-13T01:15:34;11.60;99.90
14236;DHT22;7202;50.718;7.072;2023-01-13T01:18:06;11.40;99.90
14236;DHT22;7202;50.718;7.072;2023-01-13T01:20:35;11.40;99.90
14236;DHT22;7202;50.718;7.072;2023-01-13T01:23:04;11.40;99.90
14236;DHT22;7202;50.718;7.072;2023-01-13T01:25:33;11.30;99.90
14236;DHT22;7202;50.718;7.072;2023-01-13T01:28:03;11.40;99.90
14236;DHT22;7202;50.718;7.072;2023-01-13T01:30:31;11.50;99.90
14236;DHT22;7202;50.718;7.072;2023-01-13T01:33:00;11.50;99.90
14236;DHT22;7202;50.718;7.072;2023-01-13T01:35:31;11.40;99.90
14236;DHT22;7202;50.718;7.072;2023-01-13T01:37:59;11.30;99.90
14236;DHT22;7202;50.718;7.072;2023-01-13T01:40:28;11.10;99.90
14236;DHT22;7202;50.718;7.072;2023-01-13T01:42:57;11.00;99.90
14236;DHT22;7202;50.718;7.072;2023-01-13T01:45:44;10.80;99.90
14236;DHT22;7202;50.718;7.072;2023-01-13T01:48:13;10.70;99.90
14236;DHT22;7202;50.718;7.072;2023-01-13T01:50:41;10.60;99.90
14236;DHT22;7202;50.718;7.072;2023-01-13T01:53:13;10.50;99.90
14236;DHT22;7202;50.718;7.072;2023-01-13T01:55:43;10.40;99.90
14236;DHT22;7202;50.718;7.072;2023-01-13T01:58:15;10.40;99.90
14236;DHT22;7202;50.718;7.072;2023-01-13T02:00:46;10.40;99.90
14236;DHT22;7202;50.718;7.072;2023-01-13T02:03:15;10.40;99.90
14236;DHT22;7202;50.718;7.072;2023-01-13T02:05:44;10.40;99.90
14236;DHT22;7202;50.718;7.072;2023-01-13T02:08:13;10.40;99.90
14236;DHT22;7202;50.718;7.072;2023-01-13T02:10:45;10.40;99.90
14236;DHT22;7202;50.718;7.072;2023-01-13T02:13:16;10.40;99.90
14236;DHT22;7202;50.718;7.072;2023-01-13T02:15:51;10.40;99.90
14236;DHT22;7202;50.718;7.072;2023-01-13T02:18:35;10.30;99.90
14236;DHT22;7202;50.718;7.072;2023-01-13T02:24:28;10.20;99.90
14236;DHT22;7202;50.718;7.072;2023-01-13T02:30:21;10.10;99.90
14236;DHT22;7202;50.718;7.072;2023-01-13T02:33:17;10.10;99.90
14236;DHT22;7202;50.718;7.072;2023-01-13T02:35:50;10.00;99.90
14236;DHT22;7202;50.718;7.072;2023-01-13T02:38:26;10.00;99.90
14236;DHT22;7202;50.718;7.072;2023-01-13T02:40:59;10.00;99.90
14236;DHT22;7202;50.718;7.072;2023-01-13T02:43:49;10.00;99.90
14236;DHT22;7202;50.718;7.072;2023-01-13T02:46:39;10.00;99.90
14236;DHT22;7202;50.718;7.072;2023-01-13T02:49:16;10.00;99.90
14236;DHT22;7202;50.718;7.072;2023-01-13T02:51:49;10.00;99.90
14236;DHT22;7202;50.718;7.072;2023-01-13T02:54:22;9.90;99.90
14236;DHT22;7202;50.718;7.072;2023-01-13T02:56:53;9.90;99.90
14236;DHT22;7202;50.718;7.072;2023-01-13T02:59:23;9.90;99.90
14236;DHT22;7202;50.718;7.072;2023-01-13T03:01:56;9.80;99.90
14236;DHT22;7202;50.718;7.072;2023-01-13T03:04:45;9.90;99.90
14236;DHT22;7202;50.718;7.072;2023-01-13T03:07:33;9.80;99.90
14236;DHT22;7202;50.718;7.072;2023-01-13T03:10:09;9.80;99.90
14236;DHT22;7202;50.718;7.072;2023-01-13T03:12:43;9.80;99.90
14236;DHT22;7202;50.718;7.072;2023-01-13T03:15:17;9.80;99.90
14236;DHT22;7202;50.718;7.072;2023-01-13T03:17:57;9.90;99.90
14236;DHT22;7202;50.718;7.072;2023-01-13T03:20:33;9.80;99.90
14236;DHT22;7202;50.718;7.072;2023-01-13T03:23:08;9.70;99.90
14236;DHT22;7202;50.718;7.072;2023-01-13T03:25:49;9.70;99.90
14236;DHT22;7202;50.718;7.072;2023-01-13T03:28:22;9.70;99.90
14236;DHT22;7202;50.718;7.072;2023-01-13T03:30:57;9.70;99.90
14236;DHT22;7202;50.718;7.072;2023-01-13T03:33:33;9.70;99.90
14236;DHT22;7202;50.718;7.072;2023-01-13T03:36:06;9.70;99.90
14236;DHT22;7202;50.718;7.072;2023-01-13T03:38:38;9.70;99.90
14236;DHT22;7202;50.718;7.072;2023-01-13T03:41:13;9.60;99.90
14236;DHT22;7202;50.718;7.072;2023-01-13T03:43:47;9.60;99.90
14236;DHT22;7202;50.718;7.072;2023-01-13T03:46:38;9.60;99.90
14236;DHT22;7202;50.718;7.072;2023-01-13T03:49:13;9.60;99.90
14236;DHT22;7202;50.718;7.072;2023-01-13T03:51:47;9.60;99.90
14236;DHT22;7202;50.718;7.072;2023-01-13T03:54:18;9.60;99.90
14236;DHT22;7202;50.718;7.072;2023-01-13T03:56:53;9.60;99.90
14236;DHT22;7202;50.718;7.072;2023-01-13T03:59:27;9.70;99.90
14236;DHT22;7202;50.718;7.072;2023-01-13T04:02:01;9.70;99.90
14236;DHT22;7202;50.718;7.072;2023-01-13T04:04:34;9.70;99.90
14236;DHT22;7202;50.718;7.072;2023-01-13T04:07:11;9.70;99.90
14236;DHT22;7202;50.718;7.072;2023-01-13T04:09:48;9.60;99.90
14236;DHT22;7202;50.718;7.072;2023-01-13T04:12:23;9.60;99.90
14236;DHT22;7202;50.718;7.072;2023-01-13T04:14:53;9.60;99.90
14236;DHT22;7202;50.718;7.072;2023-01-13T04:17:22;9.50;99.90
14236;DHT22;7202;50.718;7.072;2023-01-13T04:19:52;9.50;99.90
14236;DHT22;7202;50.718;7.072;2023-01-13T04:22:21;9.50;99.90
14236;DHT22;7202;50.718;7.072;2023-01-13T04:24:50;9.50;99.90
14236;DHT22;7202;50.718;7.072;2023-01-13T04:27:18;9.50;99.90
14236;DHT22;7202;50.718;7.072;2023-01-13T04:29:47;9.40;99.90
14236;DHT22;7202;50.718;7.072;2023-01-13T04:32:15;9.40;99.90
14236;DHT22;7202;50.718;7.072;2023-01-13T04:34:44;9.30;99.90
14236;DHT22;7202;50.718;7.072;2023-01-13T04:37:14;9.20;99.90
14236;DHT22;7202;50.718;7.072;2023-01-13T04:39:43;9.30;99.90
14236;DHT22;7202;50.718;7.072;2023-01-13T04:42:12;9.30;99.90
14236;DHT22;7202;50.718;7.072;2023-01-13T04:44:41;9.20;99.90
14236;DHT22;7202;50.718;7.072;2023-01-13T04:47:10;9.20;99.90
14236;DHT22;7202;50.718;7.072;2023-01-13T04:49:38;9.30;99.90
14236;DHT22;7202;50.718;7.072;2023-01-13T04:52:07;9.20;99.90
14236;DHT22;7202;50.718;7.072;2023-01-13T04:54:37;9.20;99.90
14236;DHT22;7202;50.718;7.072;2023-01-13T04:57:05;9.20;99.90
14236;DHT22;7202;50.718;7.072;2023-01-13T04:59:34;9.30;99.90
14236;DHT22;7202;50.718;7.072;2023-01-13T05:02:02;9.20;99.90
14236;DHT22;7202;50.718;7.072;2023-01-13T05:04:31;9.30;99.90
14236;DHT22;7202;50.718;7.072;2023-01-13T05:07:00;9.20;99.90
14236;DHT22;7202;50.718;7.072;2023-01-13T05:09:28;9.20;99.90
14236;DHT22;7202;50.718;7.072;2023-01-13T05:11:58;9.10;99.90
14236;DHT22;7202;50.718;7.072;2023-01-13T05:14:44;9.10;99.90
14236;DHT22;7202;50.718;7.072;2023-01-13T05:17:36;9.00;99.90
14236;DHT22;7202;50.718;7.072;2023-01-13T05:20:06;9.10;99.90
14236;DHT22;7202;50.718;7.072;2023-01-13T05:22:34;8.90;99.90
14236;DHT22;7202;50.718;7.072;2023-01-13T05:25:21;8.80;99.90
14236;DHT22;7202;50.718;7.072;2023-01-13T05:27:54;8.80;99.90
14236;DHT22;7202;50.718;7.072;2023-01-13T05:30:25;8.80;99.90
14236;DHT22;7202;50.718;7.072;2023-01-13T05:32:54;8.80;99.90
14236;DHT22;7202;50.718;7.072;2023-01-13T05:35:23;8.80;99.90
14236;DHT22;7202;50.718;7.072;2023-01-13T05:37:53;8.80;99.90
14236;DHT22;7202;50.718;7.072;2023-01-13T05:40:22;8.80;99.90
14236;DHT22;7202;50.718;7.072;2023-01-13T05:43:11;8.80;99.90
14236;DHT22;7202;50.718;7.072;2023-01-13T05:45:54;8.70;99.90
14236;DHT22;7202;50.718;7.072;2023-01-13T05:48:25;8.70;99.90
14236;DHT22;7202;50.718;7.072;2023-01-13T05:50:54;8.60;99.90
14236;DHT22;7202;50.718;7.072;2023-01-13T05:53:23;8.60;99.90
14236;DHT22;7202;50.718;7.072;2023-01-13T05:55:52;8.60;99.90
14236;DHT22;7202;50.718;7.072;2023-01-13T05:58:24;8.60;99.90
14236;DHT22;7202;50.718;7.072;2023-01-13T06:00:58;8.60;99.90
14236;DHT22;7202;50.718;7.072;2023-01-13T06:03:27;8.60;99.90
14236;DHT22;7202;50.718;7.072;2023-01-13T06:05:56;8.70;99.90
14236;DHT22;7202;50.718;7.072;2023-01-13T06:08:28;8.70;99.90
14236;DHT22;7202;50.718;7.072;2023-01-13T06:10:57;8.70;99.90
14236;DHT22;7202;50.718;7.072;2023-01-13T06:13:27;8.60;99.90
14236;DHT22;7202;50.718;7.072;2023-01-13T06:15:56;8.60;99.90
14236;DHT22;7202;50.718;7.072;2023-01-13T06:18:26;8.60;99.90
14236;DHT22;7202;50.718;7.072;2023-01-13T06:20:55;8.60;99.90
14236;DHT22;7202;50.718;7.072;2023-01-13T06:23:24;8.70;99.90
14236;DHT22;7202;50.718;7.072;2023-01-13T06:25:59;8.60;99.90
14236;DHT22;7202;50.718;7.072;2023-01-13T06:28:30;8.70;99.90
14236;DHT22;7202;50.718;7.072;2023-01-13T06:31:02;8.70;99.90
14236;DHT22;7202;50.718;7.072;2023-01-13T06:33:34;8.60;99.90
14236;DHT22;7202;50.718;7.072;2023-01-13T06:36:06;8.60;99.90
14236;DHT22;7202;50.718;7.072;2023-01-13T06:38:40;8.60;99.90
14236;DHT22;7202;50.718;7.072;2023-01-13T06:41:10;8.50;99.90
14236;DHT22;7202;50.718;7.072;2023-01-13T06:43:40;8.50;99.90
14236;DHT22;7202;50.718;7.072;2023-01-13T06:46:07;8.50;99.90
14236;DHT22;7202;50.718;7.072;2023-01-13T06:48:36;8.50;99.90
14236;DHT22;7202;50.718;7.072;2023-01-13T06:51:05;8.60;99.90
14236;DHT22;7202;50.718;7.072;2023-01-13T06:53:33;8.60;99.90
14236;DHT22;7202;50.718;7.072;2023-01-13T06:56:02;8.60;99.90
14236;DHT22;7202;50.718;7.072;2023-01-13T06:58:30;8.60;99.90
14236;DHT22;7202;50.718;7.072;2023-01-13T07:01:01;8.60;99.90
14236;DHT22;7202;50.718;7.072;2023-01-13T07:03:29;8.70;99.90
14236;DHT22;7202;50.718;7.072;2023-01-13T07:05:58;8.70;99.90
14236;DHT22;7202;50.718;7.072;2023-01-13T07:08:28;8.70;99.90
14236;DHT22;7202;50.718;7.072;2023-01-13T07:10:57;8.80;99.90
14236;DHT22;7202;50.718;7.072;2023-01-13T07:13:25;8.70;99.90
14236;DHT22;7202;50.718;7.072;2023-01-13T07:16:13;8.80;99.90
14236;DHT22;7202;50.718;7.072;2023-01-13T07:18:41;8.80;99.90
14236;DHT22;7202;50.718;7.072;2023-01-13T07:21:11;8.80;99.90
14236;DHT22;7202;50.718;7.072;2023-01-13T07:23:46;8.90;99.90
14236;DHT22;7202;50.718;7.072;2023-01-13T07:26:15;8.90;99.90
14236;DHT22;7202;50.718;7.072;2023-01-13T07:28:44;8.90;99.90
14236;DHT22;7202;50.718;7.072;2023-01-13T07:31:15;8.80;99.90
14236;DHT22;7202;50.718;7.072;2023-01-13T07:33:44;8.80;99.90
14236;DHT22;7202;50.718;7.072;2023-01-13T07:36:13;8.70;99.90
14236;DHT22;7202;50.718;7.072;2023-01-13T07:38:42;8.70;99.90
14236;DHT22;7202;50.718;7.072;2023-01-13T07:41:12;8.70;99.90
14236;DHT22;7202;50.718;7.072;2023-01-13T07:43:58;8.70;99.90
14236;DHT22;7202;50.718;7.072;2023-01-13T07:46:32;8.70;99.90
14236;DHT22;7202;50.718;7.072;2023-01-13T07:49:01;8.70;99.90
14236;DHT22;7202;50.718;7.072;2023-01-13T07:51:30;8.80;99.90
14236;DHT22;7202;50.718;7.072;2023-01-13T07:53:59;8.90;99.90
14236;DHT22;7202;50.718;7.072;2023-01-13T07:56:28;8.90;99.90
14236;DHT22;7202;50.718;7.072;2023-01-13T07:58:58;9.00;99.90
14236;DHT22;7202;50.718;7.072;2023-01-13T08:01:27;9.00;99.90
14236;DHT22;7202;50.718;7.072;2023-01-13T08:03:59;8.90;99.90
14236;DHT22;7202;50.718;7.072;2023-01-13T08:06:28;8.80;99.90
14236;DHT22;7202;50.718;7.072;2023-01-13T08:08:57;8.70;99.90
14236;DHT22;7202;50.718;7.072;2023-01-13T08:11:26;8.60;99.90
14236;DHT22;7202;50.718;7.072;2023-01-13T08:13:55;8.50;99.90
14236;DHT22;7202;50.718;7.072;2023-01-13T08:16:24;8.40;99.90
14236;DHT22;7202;50.718;7.072;2023-01-13T08:18:53;8.30;99.90
14236;DHT22;7202;50.718;7.072;2023-01-13T08:21:23;8.30;99.90
14236;DHT22;7202;50.718;7.072;2023-01-13T08:23:51;8.20;99.90
14236;DHT22;7202;50.718;7.072;2023-01-13T08:26:20;8.10;99.90
14236;DHT22;7202;50.718;7.072;2023-01-13T08:28:49;8.10;99.90
14236;DHT22;7202;50.718;7.072;2023-01-13T08:31:17;8.00;99.90
14236;DHT22;7202;50.718;7.072;2023-01-13T08:33:48;8.00;99.90
14236;DHT22;7202;50.718;7.072;2023-01-13T08:36:17;8.00;99.90
14236;DHT22;7202;50.718;7.072;2023-01-13T08:38:48;8.00;99.90
14236;DHT22;7202;50.718;7.072;2023-01-13T08:41:16;8.00;99.90
14236;DHT22;7202;50.718;7.072;2023-01-13T08:44:05;8.00;99.90
14236;DHT22;7202;50.718;7.072;2023-01-13T08:46:35;8.10;99.90
14236;DHT22;7202;50.718;7.072;2023-01-13T08:49:04;8.10;99.90
14236;DHT22;7202;50.718;7.072;2023-01-13T08:51:33;8.20;99.90
14236;DHT22;7202;50.718;7.072;2023-01-13T08:54:03;8.30;99.90
14236;DHT22;7202;50.718;7.072;2023-01-13T08:56:32;8.30;99.90
14236;DHT22;7202;50.718;7.072;2023-01-13T08:59:02;8.40;99.90
14236;DHT22;7202;50.718;7.072;2023-01-13T09:01:31;8.40;99.90
14236;DHT22;7202;50.718;7.072;2023-01-13T09:04:00;8.50;99.90
14236;DHT22;7202;50.718;7.072;2023-01-13T09:06:29;8.60;99.90
14236;DHT22;7202;50.718;7.072;2023-01-13T09:08:58;8.70;99.90
14236;DHT22;7202;50.718;7.072;2023-01-13T09:11:33;8.80;99.90
14236;DHT22;7202;50.718;7.072;2023-01-13T09:14:22;8.80;99.90
14236;DHT22;7202;50.718;7.072;2023-01-13T09:16:50;9.00;99.90
14236;DHT22;7202;50.718;7.072;2023-01-13T09:19:19;9.00;99.90
14236;DHT22;7202;50.718;7.072;2023-01-13T09:21:48;9.10;99.90
14236;DHT22;7202;50.718;7.072;2023-01-13T09:24:16;9.20;99.90
14236;DHT22;7202;50.718;7.072;2023-01-13T09:26:46;9.30;99.90
14236;DHT22;7202;50.718;7.072;2023-01-13T09:29:16;9.30;99.90
14236;DHT22;7202;50.718;7.072;2023-01-13T09:31:44;9.30;99.90
14236;DHT22;7202;50.718;7.072;2023-01-13T09:34:15;9.30;99.90
14236;DHT22;7202;50.718;7.072;2023-01-13T09:37:02;9.40;99.90
14236;DHT22;7202;50.718;7.072;2023-01-13T09:39:31;9.40;99.90
14236;DHT22;7202;50.718;7.072;2023-01-13T09:42:09;9.40;99.90
14236;DHT22;7202;50.718;7.072;2023-01-13T09:45:01;9.50;99.90
14236;DHT22;7202;50.718;7.072;2023-01-13T09:47:36;9.50;99.90
14236;DHT22;7202;50.718;7.072;2023-01-13T09:50:19;9.60;99.90
14236;DHT22;7202;50.718;7.072;2023-01-13T09:52:48;9.60;99.90
14236;DHT22;7202;50.718;7.072;2023-01-13T09:55:20;9.70;99.90
14236;DHT22;7202;50.718;7.072;2023-01-13T09:57:51;9.80;99.90
14236;DHT22;7202;50.718;7.072;2023-01-13T10:00:22;9.80;99.90
14236;DHT22;7202;50.718;7.072;2023-01-13T10:03:07;9.80;99.90
14236;DHT22;7202;50.718;7.072;2023-01-13T10:05:41;9.80;99.90
14236;DHT22;7202;50.718;7.072;2023-01-13T10:08:14;9.90;99.90
14236;DHT22;7202;50.718;7.072;2023-01-13T10:10:46;9.90;99.90
14236;DHT22;7202;50.718;7.072;2023-01-13T10:13:21;9.90;99.90
14236;DHT22;7202;50.718;7.072;2023-01-13T10:16:02;9.90;99.90
14236;DHT22;7202;50.718;7.072;2023-01-13T10:18:41;10.00;99.90
14236;DHT22;7202;50.718;7.072;2023-01-13T10:21:37;10.00;99.90
14236;DHT22;7202;50.718;7.072;2023-01-13T10:24:17;10.00;99.90
14236;DHT22;7202;50.718;7.072;2023-01-13T10:26:53;10.00;99.90
14236;DHT22;7202;50.718;7.072;2023-01-13T10:29:30;10.10;99.90
14236;DHT22;7202;50.718;7.072;2023-01-13T10:31:59;10.10;99.90
14236;DHT22;7202;50.718;7.072;2023-01-13T10:34:28;10.20;99.90
14236;DHT22;7202;50.718;7.072;2023-01-13T10:36:59;10.30;99.90
14236;DHT22;7202;50.718;7.072;2023-01-13T10:39:38;10.40;99.90
14236;DHT22;7202;50.718;7.072;2023-01-13T10:42:12;10.50;99.90
14236;DHT22;7202;50.718;7.072;2023-01-13T10:44:50;10.50;99.90
14236;DHT22;7202;50.718;7.072;2023-01-13T10:47:22;10.60;99.90
14236;DHT22;7202;50.718;7.072;2023-01-13T10:50:00;10.60;99.90
14236;DHT22;7202;50.718;7.072;2023-01-13T10:52:30;10.60;99.90
14236;DHT22;7202;50.718;7.072;2023-01-13T10:54:59;10.60;99.90
14236;DHT22;7202;50.718;7.072;2023-01-13T10:57:28;10.60;99.90
14236;DHT22;7202;50.718;7.072;2023-01-13T11:00:05;10.60;99.90
14236;DHT22;7202;50.718;7.072;2023-01-13T11:03:14;10.60;99.90
14236;DHT22;7202;50.718;7.072;2023-01-13T11:05:51;10.60;99.90
14236;DHT22;7202;50.718;7.072;2023-01-13T11:08:22;10.60;99.90
14236;DHT22;7202;50.718;7.072;2023-01-13T11:10:53;10.50;99.90
14236;DHT22;7202;50.718;7.072;2023-01-13T11:13:27;10.60;99.90
14236;DHT22;7202;50.718;7.072;2023-01-13T11:16:02;10.60;99.90
14236;DHT22;7202;50.718;7.072;2023-01-13T11:18:39;10.80;99.90
14236;DHT22;7202;50.718;7.072;2023-01-13T11:21:21;10.80;99.90
14236;DHT22;7202;50.718;7.072;2023-01-13T11:24:02;10.90;99.90
14236;DHT22;7202;50.718;7.072;2023-01-13T11:26:39;10.90;99.90
14236;DHT22;7202;50.718;7.072;2023-01-13T11:29:12;10.90;99.90
14236;DHT22;7202;50.718;7.072;2023-01-13T11:31:48;10.90;99.90
14236;DHT22;7202;50.718;7.072;2023-01-13T11:34:25;10.90;99.90
14236;DHT22;7202;50.718;7.072;2023-01-13T11:36:58;10.90;99.90
14236;DHT22;7202;50.718;7.072;2023-01-13T11:39:38;10.90;99.90
14236;DHT22;7202;50.718;7.072;2023-01-13T11:42:15;11.00;99.90
14236;DHT22;7202;50.718;7.072;2023-01-13T11:44:53;11.00;99.90
14236;DHT22;7202;50.718;7.072;2023-01-13T11:47:27;11.00;99.90
14236;DHT22;7202;50.718;7.072;2023-01-13T11:49:56;11.10;99.90
14236;DHT22;7202;50.718;7.072;2023-01-13T11:52:44;11.10;99.90
14236;DHT22;7202;50.718;7.072;2023-01-13T11:55:30;11.10;99.90
14236;DHT22;7202;50.718;7.072;2023-01-13T11:58:30;11.10;99.90
14236;DHT22;7202;50.718;7.072;2023-01-13T12:01:25;11.10;99.90
14236;DHT22;7202;50.718;7.072;2023-01-13T12:04:06;11.10;99.90
14236;DHT22;7202;50.718;7.072;2023-01-13T12:06:39;11.00;99.90
14236;DHT22;7202;50.718;7.072;2023-01-13T12:09:27;11.00;99.90
14236;DHT22;7202;50.718;7.072;2023-01-13T12:12:06;10.80;99.90
14236;DHT22;7202;50.718;7.072;2023-01-13T12:15:04;10.60;99.90
14236;DHT22;7202;50.718;7.072;2023-01-13T12:17:42;10.50;99.90
14236;DHT22;7202;50.718;7.072;2023-01-13T12:20:23;10.40;99.90
14236;DHT22;7202;50.718;7.072;2023-01-13T12:22:55;10.40;99.90
14236;DHT22;7202;50.718;7.072;2023-01-13T12:25:30;10.30;99.90
14236;DHT22;7202;50.718;7.072;2023-01-13T12:28:03;10.30;99.90
14236;DHT22;7202;50.718;7.072;2023-01-13T12:30:39;10.30;99.90
14236;DHT22;7202;50.718;7.072;2023-01-13T12:33:18;10.30;99.90
14236;DHT22;7202;50.718;7.072;2023-01-13T12:35:55;10.40;99.90
14236;DHT22;7202;50.718;7.072;2023-01-13T12:38:34;10.40;99.90
14236;DHT22;7202;50.718;7.072;2023-01-13T12:41:11;10.40;99.90
14236;DHT22;7202;50.718;7.072;2023-01-13T12:43:46;10.40;99.90
14236;DHT22;7202;50.718;7.072;2023-01-13T12:46:48;10.50;99.90
14236;DHT22;7202;50.718;7.072;2023-01-13T12:49:25;10.60;99.90
14236;DHT22;7202;50.718;7.072;2023-01-13T12:52:22;10.60;99.90
14236;DHT22;7202;50.718;7.072;2023-01-13T12:57:57;10.70;99.90
14236;DHT22;7202;50.718;7.072;2023-01-13T13:00:31;10.70;99.90
14236;DHT22;7202;50.718;7.072;2023-01-13T13:03:27;10.70;99.90
14236;DHT22;7202;50.718;7.072;2023-01-13T13:06:00;10.70;99.90
14236;DHT22;7202;50.718;7.072;2023-01-13T13:08:45;10.70;99.90
14236;DHT22;7202;50.718;7.072;2023-01-13T13:11:33;10.80;99.90
14236;DHT22;7202;50.718;7.072;2023-01-13T13:14:58;10.80;99.90
14236;DHT22;7202;50.718;7.072;2023-01-13T13:17:41;10.80;99.90
14236;DHT22;7202;50.718;7.072;2023-01-13T13:26:26;10.60;99.90
14236;DHT22;7202;50.718;7.072;2023-01-13T13:32:20;10.60;99.90
14236;DHT22;7202;50.718;7.072;2023-01-13T13:35:04;10.60;99.90
14236;DHT22;7202;50.718;7.072;2023-01-13T13:37:45;10.50;99.90
14236;DHT22;7202;50.718;7.072;2023-01-13T13:40:39;10.50;99.90
14236;DHT22;7202;50.718;7.072;2023-01-13T13:43:29;10.50;99.90
14236;DHT22;7202;50.718;7.072;2023-01-13T13:46:26;10.50;99.90
14236;DHT22;7202;50.718;7.072;2023-01-13T13:49:13;10.50;99.90
14236;DHT22;7202;50.718;7.072;2023-01-13T13:51:46;10.50;99.90
14236;DHT22;7202;50.718;7.072;2023-01-13T13:54:18;10.50;99.90
14236;DHT22;7202;50.718;7.072;2023-01-13T13:56:49;10.50;99.90
14236;DHT22;7202;50.718;7.072;2023-01-13T13:59:22;10.50;99.90
14236;DHT22;7202;50.718;7.072;2023-01-13T14:01:53;10.50;99.90
14236;DHT22;7202;50.718;7.072;2023-01-13T14:04:29;10.50;99.90
14236;DHT22;7202;50.718;7.072;2023-01-13T14:07:01;10.50;99.90
14236;DHT22;7202;50.718;7.072;2023-01-13T14:09:40;10.50;99.90
14236;DHT22;7202;50.718;7.072;2023-01-13T14:12:17;10.50;99.90
14236;DHT22;7202;50.718;7.072;2023-01-13T14:14:48;10.50;99.90
14236;DHT22;7202;50.718;7.072;2023-01-13T14:17:19;10.50;99.90
14236;DHT22;7202;50.718;7.072;2023-01-13T14:19:55;10.50;99.90
14236;DHT22;7202;50.718;7.072;2023-01-13T14:22:25;10.50;99.90
14236;DHT22;7202;50.718;7.072;2023-01-13T14:24:53;10.50;99.90
14236;DHT22;7202;50.718;7.072;2023-01-13T14:27:25;10.40;99.90
14236;DHT22;7202;50.718;7.072;2023-01-13T14:29:57;10.40;99.90
14236;DHT22;7202;50.718;7.072;2023-01-13T14:32:31;10.40;99.90
14236;DHT22;7202;50.718;7.072;2023-01-13T14:35:00;10.30;99.90
14236;DHT22;7202;50.718;7.072;2023-01-13T14:37:33;10.30;99.90
14236;DHT22;7202;50.718;7.072;2023-01-13T14:40:03;10.20;99.90
14236;DHT22;7202;50.718;7.072;2023-01-13T14:42:32;10.10;99.90
14236;DHT22;7202;50.718;7.072;2023-01-13T14:47:50;9.90;99.90
14236;DHT22;7202;50.718;7.072;2023-01-13T14:50:22;9.80;99.90
14236;DHT22;7202;50.718;7.072;2023-01-13T14:52:58;9.60;99.90
14236;DHT22;7202;50.718;7.072;2023-01-13T14:55:28;9.60;99.90
14236;DHT22;7202;50.718;7.072;2023-01-13T14:58:16;9.50;99.90
14236;DHT22;7202;50.718;7.072;2023-01-13T15:01:23;9.50;99.90
14236;DHT22;7202;50.718;7.072;2023-01-13T15:03:42;9.30;99.90
14236;DHT22;7202;50.718;7.072;2023-01-13T15:06:24;9.30;99.90
14236;DHT22;7202;50.718;7.072;2023-01-13T15:08:53;9.30;99.90
14236;DHT22;7202;50.718;7.072;2023-01-13T15:11:23;9.30;99.90
14236;DHT22;7202;50.718;7.072;2023-01-13T15:13:56;9.20;99.90
14236;DHT22;7202;50.718;7.072;2023-01-13T15:16:28;9.20;99.90
14236;DHT22;7202;50.718;7.072;2023-01-13T15:19:01;9.10;99.90
14236;DHT22;7202;50.718;7.072;2023-01-13T15:21:29;9.10;99.90
14236;DHT22;7202;50.718;7.072;2023-01-13T15:23:58;9.10;99.90
14236;DHT22;7202;50.718;7.072;2023-01-13T15:26:28;9.20;99.90
14236;DHT22;7202;50.718;7.072;2023-01-13T15:28:57;9.20;99.90
14236;DHT22;7202;50.718;7.072;2023-01-13T15:31:28;9.20;99.90
14236;DHT22;7202;50.718;7.072;2023-01-13T15:33:57;9.10;99.90
14236;DHT22;7202;50.718;7.072;2023-01-13T15:36:29;9.10;99.90
14236;DHT22;7202;50.718;7.072;2023-01-13T15:38:59;9.10;99.90
14236;DHT22;7202;50.718;7.072;2023-01-13T15:41:28;9.10;99.90
14236;DHT22;7202;50.718;7.072;2023-01-13T15:44:15;9.10;99.90
14236;DHT22;7202;50.718;7.072;2023-01-13T15:47:05;9.00;99.90
14236;DHT22;7202;50.718;7.072;2023-01-13T15:49:36;9.00;99.90
14236;DHT22;7202;50.718;7.072;2023-01-13T15:52:17;9.00;99.90
14236;DHT22;7202;50.718;7.072;2023-01-13T15:54:46;9.00;99.90
14236;DHT22;7202;50.718;7.072;2023-01-13T15:57:20;9.00;99.90
14236;DHT22;7202;50.718;7.072;2023-01-13T15:59:50;9.00;99.90
14236;DHT22;7202;50.718;7.072;2023-01-13T16:05:16;9.00;99.90
14236;DHT22;7202;50.718;7.072;2023-01-13T16:07:45;9.00;99.90
14236;DHT22;7202;50.718;7.072;2023-01-13T16:10:16;9.80;99.90
14236;DHT22;7202;50.718;7.072;2023-01-13T16:12:45;9.50;99.90
14236;DHT22;7202;50.718;7.072;2023-01-13T16:15:14;9.20;99.90
14236;DHT22;7202;50.718;7.072;2023-01-13T16:17:44;9.10;99.90
14236;DHT22;7202;50.718;7.072;2023-01-13T16:20:16;9.60;99.90
14236;DHT22;7202;50.718;7.072;2023-01-13T16:22:44;9.20;99.90
14236;DHT22;7202;50.718;7.072;2023-01-13T16:25:15;9.20;99.90
14236;DHT22;7202;50.718;7.072;2023-01-13T16:27:45;9.20;99.90
14236;DHT22;7202;50.718;7.072;2023-01-13T16:30:22;9.30;99.90
14236;DHT22;7202;50.718;7.072;2023-01-13T16:32:52;9.20;99.90
14236;DHT22;7202;50.718;7.072;2023-01-13T16:35:24;9.60;99.90
14236;DHT22;7202;50.718;7.072;2023-01-13T16:37:53;9.40;99.90
14236;DHT22;7202;50.718;7.072;2023-01-13T16:40:26;9.10;99.90
14236;DHT22;7202;50.718;7.072;2023-01-13T16:42:58;9.60;99.90
14236;DHT22;7202;50.718;7.072;2023-01-13T16:45:27;8.90;99.90
14236;DHT22;7202;50.718;7.072;2023-01-13T16:47:56;8.80;99.90
14236;DHT22;7202;50.718;7.072;2023-01-13T16:50:33;9.40;99.90
14236;DHT22;7202;50.718;7.072;2023-01-13T16:53:03;8.70;99.90
14236;DHT22;7202;50.718;7.072;2023-01-13T16:55:38;8.60;99.90
14236;DHT22;7202;50.718;7.072;2023-01-13T16:58:14;8.60;99.90
14236;DHT22;7202;50.718;7.072;2023-01-13T17:00:44;8.60;99.90